Tuesday, July 22, 2014
21:26 UTC
  |  Log In   |  Register Free
Airport Search:

Norwood Memorial Airport
(KOWD)

Norwood Memorial Airport Diagram
No Airport Diagram Available

FAA data valid effective May 29, 2014 until July 24, 2014 (unless otherwise noted).

 
 
 
 
 
 
 
 
 
 
 
 
 
 

Current Aviation Weather for Norwood Memorial Airport (KOWD)

The most recent METAR observation for KOWD was updated at: 2053 UTC
METAR Summary (Translated METAR)
KOWD
222053Z VRB05KT 10SM FEW095 32/18 A3002 RMK AO2 SLP166 T03170183 56016
KBOS
(12.7 nm NE from KOWD)
221954Z 11012KT 10SM FEW055 SCT080 26/19 A3004 RMK AO2 SLP171 T02610194
TAF Summary (Translated TAF)
KBOS
(12.7 nm NE from KOWD)
222017Z 2220/2324 13010KT P6SM SCT050 FM222200 18010KT P6SM SCT050 FM230100 21012KT P6SM SCT250 FM232300 22013KT P6SM BKN040
KBED
(17.5 nm NW from KOWD)
221720Z 2218/2318 23005KT P6SM SCT045 FM230000 21009KT P6SM BKN045 FM230200 22009KT P6SM SCT250 FM231200 23008KT P6SM SCT250 FM231500 22012KT P6SM SCT250
  Airport Weather Conditions for KOWD

 Current Weather at OWD
89° F
A Few Clouds
Variable winds at 5.8 mph
OWD NOAA Radar

Pressure: 30.02 in
Humidity: 45%
Wind: Variable at 5.8 MPH (5 KT)
Dew Point: 64.9°F
Visibility: 10.00 mi


Airport Weather Forecast for KOWD

Translated METAR and TAF for KOWD
Translated METAR for KOWD (2119 UTC 22 July 2014)
found at http://aviationweather.gov/adds/metars/
 
METAR text: KOWD 222053Z VRB05KT 10SM FEW095 32/18 A3002 RMK AO2 SLP166 T03170183 56016
Conditions at: KOWD (NORWOOD , MA, US) observed 2053 UTC 22 July 2014
Temperature: 31.7°C (89°F)
Dewpoint: 18.3°C (65°F) [RH = 45%]
Pressure (altimeter): 30.02 inches Hg (1016.7 mb)
[Sea-level pressure: 1016.6 mb]
Winds: variable direction winds at 6 MPH (5 knots; 2.6 m/s)
Visibility: 10 or more miles (16+ km)
Ceiling: at least 12,000 feet AGL
Clouds: few clouds at 9500 feet AGL
Weather: no significant weather observed at this time
Translated TAF for KOWD

There is no translated TAF available for this airport

Find All Airport Services Find A Hotel Find A Rental Car Find A Golf Course Find A Restaurant $100 Hamburger



FBO's on the Field
FBO Company Facility Photos Services Transportation Aviation Fuel Prices: Prices include tax
Catering Weather Repair Courtesy Rental Type 100LL JetA JetA+ MOGAS 8087
 
FlightLevel Aviation

Currently rated 2.7 by 2 people
FS:Shell
Last Updated: Jul-22
Login to update fuel prices
SS:
Contact FlightLevel AviationMore FBO Information
 
Add another FBO Facility Photos Catering Weather Repair Courtesy Rental Type 100LL JetA JetA+ MOGAS 8087
Services Transportation Aviation Fuel Prices: Prices include tax


GlobalAir.com Airport Resource Center model-print
model-print
model-print
model-print